Time;durP1;ratioP1;P1;durP2;ratioP2;P2;SDS_P1;SDS_P2;PMS_P1;PMS_P2;Temp;Humidity;BMP_temperature;BMP_pressure;BME280_temperature;BME280_humidity;BME280_pressure;Samples;Min_cycle;Max_cycle;Signal;HPM_P1;HPM_P2
2021/01/16 00:01:14;;;;;;;;;;;4.10;99.90;;;;;;5056174;28;19956;-56
2021/01/16 00:03:40;;;;;;;;;;;4.10;99.90;;;;;;5055949;28;19944;-54
2021/01/16 00:06:07;;;;;;;;;;;4.20;99.90;;;;;;5056572;28;19944;-54
2021/01/16 00:08:33;;;;;;;;;;;4.20;99.90;;;;;;5074963;28;19904;-54
2021/01/16 00:10:59;;;;;;;;;;;4.20;99.90;;;;;;5076132;28;19912;-54
2021/01/16 00:13:25;;;;;;;;;;;4.30;99.90;;;;;;5075923;28;20226;-55
2021/01/16 00:15:51;;;;;;;;;;;4.30;99.90;;;;;;5076263;28;20319;-55
2021/01/16 00:18:18;;;;;;;;;;;4.30;99.90;;;;;;5077880;28;19923;-56
2021/01/16 00:20:44;;;;;;;;;;;4.30;99.90;;;;;;5080393;28;19916;-55
2021/01/16 00:23:10;;;;;;;;;;;4.40;99.90;;;;;;5079846;28;19931;-55
2021/01/16 00:25:36;;;;;;;;;;;4.40;99.90;;;;;;5067182;28;19904;-55
2021/01/16 00:28:02;;;;;;;;;;;4.50;99.90;;;;;;5059838;28;20270;-55
2021/01/16 00:30:28;;;;;;;;;;;4.60;99.90;;;;;;5059626;28;19908;-55
2021/01/16 00:32:54;;;;;;;;;;;4.60;99.90;;;;;;5059691;28;19920;-56
2021/01/16 00:35:20;;;;;;;;;;;4.60;99.90;;;;;;5059701;28;19904;-55
2021/01/16 00:37:46;;;;;;;;;;;4.70;99.90;;;;;;5059865;28;19909;-56
2021/01/16 00:40:13;;;;;;;;;;;4.80;99.90;;;;;;5059296;28;19905;-54
2021/01/16 00:42:40;;;;;;;;;;;4.90;99.90;;;;;;5059273;28;19958;-55
2021/01/16 00:45:06;;;;;;;;;;;5.00;99.90;;;;;;5059415;28;19908;-55
2021/01/16 00:47:33;;;;;;;;;;;5.10;99.90;;;;;;5041555;28;19905;-55
2021/01/16 00:49:58;;;;;;;;;;;5.20;99.90;;;;;;5094922;28;20230;-54
2021/01/16 00:52:24;;;;;;;;;;;5.30;99.90;;;;;;5099601;28;19911;-55
2021/01/16 00:54:49;;;;;;;;;;;5.30;99.90;;;;;;5099382;28;19908;-55
2021/01/16 00:57:15;;;;;;;;;;;5.30;99.90;;;;;;5099816;28;19915;-55
2021/01/16 00:59:40;;;;;;;;;;;5.30;99.90;;;;;;5099108;28;19908;-55
2021/01/16 01:02:06;;;;;;;;;;;5.30;99.90;;;;;;5099626;28;19912;-54
2021/01/16 01:04:31;;;;;;;;;;;5.30;99.90;;;;;;5099723;28;20210;-55
2021/01/16 01:07:00;;;;;;;;;;;5.30;99.90;;;;;;5099758;28;19916;-55
2021/01/16 01:09:26;;;;;;;;;;;5.30;99.90;;;;;;5081132;28;20258;-54
2021/01/16 01:11:52;;;;;;;;;;;5.30;99.90;;;;;;5099021;28;20298;-55
2021/01/16 01:14:17;;;;;;;;;;;5.30;99.90;;;;;;5098854;28;19996;-55
2021/01/16 01:16:43;;;;;;;;;;;5.30;99.90;;;;;;5099641;28;19947;-55
2021/01/16 01:19:08;;;;;;;;;;;5.30;99.90;;;;;;5107846;28;19904;-56
2021/01/16 01:21:34;;;;;;;;;;;5.40;99.90;;;;;;5119761;28;19907;-55
2021/01/16 01:23:59;;;;;;;;;;;5.40;99.90;;;;;;5101191;28;20294;-54
2021/01/16 01:26:25;;;;;;;;;;;5.40;99.90;;;;;;5119202;28;19907;-54
2021/01/16 01:28:50;;;;;;;;;;;5.40;99.90;;;;;;5118471;28;19915;-55
2021/01/16 01:31:16;;;;;;;;;;;5.50;99.90;;;;;;5119427;28;19938;-55
2021/01/16 01:33:41;;;;;;;;;;;5.40;99.90;;;;;;5119101;28;19972;-55
2021/01/16 01:36:07;;;;;;;;;;;5.50;99.90;;;;;;5118909;28;20293;-55
2021/01/16 01:38:32;;;;;;;;;;;5.50;99.90;;;;;;5119185;28;19947;-55
2021/01/16 01:40:58;;;;;;;;;;;5.50;99.90;;;;;;5119343;28;19908;-55
2021/01/16 01:43:24;;;;;;;;;;;5.50;99.90;;;;;;5119315;28;19908;-55
2021/01/16 01:45:49;;;;;;;;;;;5.50;99.90;;;;;;5118939;28;19908;-57
2021/01/16 01:48:15;;;;;;;;;;;5.50;99.90;;;;;;5118393;28;19922;-56
2021/01/16 01:50:40;;;;;;;;;;;5.50;99.90;;;;;;5117842;28;20226;-54
2021/01/16 01:53:07;;;;;;;;;;;5.50;99.90;;;;;;5118904;28;20306;-56
2021/01/16 01:55:33;;;;;;;;;;;5.40;99.90;;;;;;5118998;28;19943;-54
2021/01/16 01:57:59;;;;;;;;;;;5.40;99.90;;;;;;5118496;28;19908;-55
2021/01/16 02:00:25;;;;;;;;;;;5.40;99.90;;;;;;5118865;28;19956;-54
2021/01/16 02:02:52;;;;;;;;;;;5.40;99.90;;;;;;5118814;28;19998;-53
2021/01/16 02:05:18;;;;;;;;;;;5.40;99.90;;;;;;5119113;28;19904;-53
2021/01/16 02:07:44;;;;;;;;;;;5.40;99.90;;;;;;5118922;28;20222;-54
2021/01/16 02:10:09;;;;;;;;;;;5.30;99.90;;;;;;5118752;28;19930;-54
2021/01/16 02:12:35;;;;;;;;;;;5.30;99.90;;;;;;5118348;28;19904;-55
2021/01/16 02:15:07;;;;;;;;;;;5.30;99.90;;;;;;5118872;28;19907;-54
2021/01/16 02:17:35;;;;;;;;;;;5.20;99.90;;;;;;5118487;28;19949;-54
2021/01/16 02:20:04;;;;;;;;;;;5.20;99.90;;;;;;5118534;28;19949;-53
2021/01/16 02:22:31;;;;;;;;;;;5.10;99.90;;;;;;5118044;28;19950;-54
2021/01/16 02:25:11;;;;;;;;;;;5.20;99.90;;;;;;5110716;28;20334;-54
2021/01/16 02:27:45;;;;;;;;;;;5.20;99.90;;;;;;5097710;28;19919;-53
2021/01/16 02:30:11;;;;;;;;;;;5.20;99.90;;;;;;5097415;28;19930;-54
2021/01/16 02:32:37;;;;;;;;;;;5.20;99.90;;;;;;5108562;28;19915;-53
2021/01/16 02:35:04;;;;;;;;;;;5.10;99.90;;;;;;5118206;28;19907;-54
2021/01/16 02:37:43;;;;;;;;;;;5.20;99.90;;;;;;5118473;28;20013;-54
2021/01/16 02:40:26;;;;;;;;;;;5.20;99.90;;;;;;5117210;28;19904;-54
2021/01/16 02:42:57;;;;;;;;;;;5.10;99.90;;;;;;5118387;28;19963;-54
2021/01/16 02:45:26;;;;;;;;;;;5.10;99.90;;;;;;5117872;28;19903;-51
2021/01/16 02:48:11;;;;;;;;;;;5.10;99.90;;;;;;5118040;28;19923;-52
2021/01/16 02:50:40;;;;;;;;;;;5.10;99.90;;;;;;5117404;28;20317;-52
2021/01/16 02:53:07;;;;;;;;;;;5.10;99.90;;;;;;5118021;28;19904;-53
2021/01/16 02:55:32;;;;;;;;;;;5.00;99.90;;;;;;5117694;28;19911;-53
2021/01/16 02:57:58;;;;;;;;;;;5.00;99.90;;;;;;5117886;28;20011;-53
2021/01/16 03:00:24;;;;;;;;;;;5.00;99.90;;;;;;5117920;28;19911;-55
2021/01/16 03:02:49;;;;;;;;;;;5.00;99.90;;;;;;5117580;28;19903;-54
2021/01/16 03:05:17;;;;;;;;;;;4.90;99.90;;;;;;5117593;28;19915;-55
2021/01/16 03:07:43;;;;;;;;;;;4.90;99.90;;;;;;5117733;28;19911;-56
2021/01/16 03:10:10;;;;;;;;;;;4.90;99.90;;;;;;5117291;28;20002;-55
2021/01/16 03:12:36;;;;;;;;;;;4.90;99.90;;;;;;5117651;28;19907;-56
2021/01/16 03:15:10;;;;;;;;;;;4.90;99.90;;;;;;5117355;28;20369;-55
2021/01/16 03:17:42;;;;;;;;;;;4.90;99.90;;;;;;5117457;28;19904;-54
2021/01/16 03:20:08;;;;;;;;;;;4.90;99.90;;;;;;5098671;28;20294;-55
2021/01/16 03:22:34;;;;;;;;;;;4.80;99.90;;;;;;5117412;28;19952;-54
2021/01/16 03:25:00;;;;;;;;;;;4.80;99.90;;;;;;5109013;28;20314;-55
2021/01/16 03:27:26;;;;;;;;;;;4.80;99.90;;;;;;5097140;28;20226;-55
2021/01/16 03:29:52;;;;;;;;;;;4.70;99.90;;;;;;5097067;28;19967;-55
2021/01/16 03:32:17;;;;;;;;;;;4.70;99.90;;;;;;5113688;28;20276;-55
2021/01/16 03:34:44;;;;;;;;;;;4.70;99.90;;;;;;5117079;28;19998;-55
2021/01/16 03:37:10;;;;;;;;;;;4.70;99.90;;;;;;5117506;28;19908;-55
2021/01/16 03:39:35;;;;;;;;;;;4.70;99.90;;;;;;5116964;28;20002;-56
2021/01/16 03:42:01;;;;;;;;;;;4.60;99.90;;;;;;5117182;28;19911;-56
2021/01/16 03:44:27;;;;;;;;;;;4.60;99.90;;;;;;5116980;28;19908;-56
2021/01/16 03:46:52;;;;;;;;;;;4.70;99.90;;;;;;5117588;28;19910;-57
2021/01/16 03:49:18;;;;;;;;;;;4.60;99.90;;;;;;5116874;28;19912;-58
2021/01/16 03:51:44;;;;;;;;;;;4.60;99.90;;;;;;5118461;28;19957;-58
2021/01/16 03:54:09;;;;;;;;;;;4.60;99.90;;;;;;5120956;28;19991;-58
2021/01/16 03:56:35;;;;;;;;;;;4.60;99.90;;;;;;5121703;28;19976;-58
2021/01/16 03:59:01;;;;;;;;;;;4.50;99.90;;;;;;5121243;28;19950;-58
2021/01/16 04:01:27;;;;;;;;;;;4.50;99.90;;;;;;5121501;28;19950;-58
2021/01/16 04:03:53;;;;;;;;;;;4.50;99.90;;;;;;5120956;28;20222;-58
2021/01/16 04:06:19;;;;;;;;;;;4.50;99.90;;;;;;5121411;28;19943;-58
2021/01/16 04:08:44;;;;;;;;;;;4.50;99.90;;;;;;5121019;28;20195;-58
2021/01/16 04:11:10;;;;;;;;;;;4.50;99.90;;;;;;5102889;28;19937;-58
2021/01/16 04:13:36;;;;;;;;;;;4.50;99.90;;;;;;5121017;28;19908;-58
2021/01/16 04:16:01;;;;;;;;;;;4.50;99.90;;;;;;5121177;28;19911;-57
2021/01/16 04:18:27;;;;;;;;;;;4.50;99.90;;;;;;5120978;28;19981;-57
2021/01/16 04:20:52;;;;;;;;;;;4.60;99.90;;;;;;5120828;28;19908;-58
2021/01/16 04:23:18;;;;;;;;;;;4.50;99.90;;;;;;5120852;28;19915;-58
2021/01/16 04:25:43;;;;;;;;;;;4.50;99.90;;;;;;5120807;28;19908;-60
2021/01/16 04:28:09;;;;;;;;;;;4.50;99.90;;;;;;5120941;28;20264;-58
2021/01/16 04:30:34;;;;;;;;;;;4.50;99.90;;;;;;5120150;28;20218;-58
2021/01/16 04:33:00;;;;;;;;;;;4.50;99.90;;;;;;5120709;28;19908;-57
2021/01/16 04:35:26;;;;;;;;;;;4.60;99.90;;;;;;5120085;28;20242;-57
2021/01/16 04:37:51;;;;;;;;;;;4.50;99.90;;;;;;5102414;28;20318;-57
2021/01/16 04:40:17;;;;;;;;;;;4.60;99.90;;;;;;5119975;28;19957;-57
2021/01/16 04:42:44;;;;;;;;;;;4.60;99.90;;;;;;5120426;28;20295;-57
2021/01/16 04:45:13;;;;;;;;;;;4.60;99.90;;;;;;5119767;28;19907;-57
2021/01/16 04:47:41;;;;;;;;;;;4.70;99.90;;;;;;5120325;28;19911;-57
2021/01/16 04:50:07;;;;;;;;;;;4.70;99.90;;;;;;5101840;28;20246;-57
2021/01/16 04:52:33;;;;;;;;;;;4.70;99.90;;;;;;5118699;28;19926;-56
2021/01/16 04:55:00;;;;;;;;;;;4.70;99.90;;;;;;5120343;28;19908;-56
2021/01/16 04:57:30;;;;;;;;;;;4.70;99.90;;;;;;5119889;28;19990;-56
2021/01/16 04:59:56;;;;;;;;;;;4.80;99.90;;;;;;5120181;28;20295;-56
2021/01/16 05:02:22;;;;;;;;;;;4.70;99.90;;;;;;5119866;28;19933;-56
2021/01/16 05:04:49;;;;;;;;;;;4.80;99.90;;;;;;5119144;28;20229;-57
2021/01/16 05:07:16;;;;;;;;;;;4.90;99.90;;;;;;5119575;28;19972;-57
2021/01/16 05:09:44;;;;;;;;;;;4.90;99.90;;;;;;5120348;28;20308;-57
2021/01/16 05:12:21;;;;;;;;;;;4.90;99.90;;;;;;5119861;28;19933;-56
2021/01/16 05:14:59;;;;;;;;;;;4.90;99.90;;;;;;5120152;28;19931;-57
2021/01/16 05:17:25;;;;;;;;;;;4.90;99.90;;;;;;5119599;28;19910;-57
2021/01/16 05:19:51;;;;;;;;;;;5.00;99.90;;;;;;5120153;28;19904;-57
2021/01/16 05:22:17;;;;;;;;;;;5.00;99.90;;;;;;5119293;28;19912;-57
2021/01/16 05:24:42;;;;;;;;;;;5.10;99.90;;;;;;5114533;28;19904;-57
2021/01/16 05:27:08;;;;;;;;;;;5.20;99.90;;;;;;5099127;28;20225;-57
2021/01/16 05:29:34;;;;;;;;;;;5.20;99.90;;;;;;5098932;28;19915;-57
2021/01/16 05:32:01;;;;;;;;;;;5.20;99.90;;;;;;5099134;28;19927;-57
2021/01/16 05:34:28;;;;;;;;;;;5.20;99.90;;;;;;5098899;28;19919;-57
2021/01/16 05:36:55;;;;;;;;;;;5.30;99.90;;;;;;5098852;28;20278;-56
2021/01/16 05:39:22;;;;;;;;;;;5.30;99.90;;;;;;5098734;28;19908;-57
2021/01/16 05:41:47;;;;;;;;;;;5.40;99.90;;;;;;5099226;28;19914;-57
2021/01/16 05:44:14;;;;;;;;;;;5.40;99.90;;;;;;5098815;28;19903;-57
2021/01/16 05:46:42;;;;;;;;;;;5.50;99.90;;;;;;5099264;28;19904;-57
2021/01/16 05:49:07;;;;;;;;;;;5.50;99.90;;;;;;5098320;28;19920;-57
2021/01/16 05:51:34;;;;;;;;;;;5.60;99.90;;;;;;5098428;28;20020;-57
2021/01/16 05:54:00;;;;;;;;;;;5.60;99.90;;;;;;5098845;28;20276;-57
2021/01/16 05:56:28;;;;;;;;;;;5.70;99.90;;;;;;5098460;28;19995;-58
2021/01/16 05:58:53;;;;;;;;;;;5.60;99.90;;;;;;5098843;28;19939;-57
2021/01/16 06:01:23;;;;;;;;;;;5.70;99.90;;;;;;5098656;28;19931;-57
2021/01/16 06:03:52;;;;;;;;;;;5.70;99.90;;;;;;5098789;28;19927;-57
2021/01/16 06:06:18;;;;;;;;;;;5.80;99.90;;;;;;5098220;28;19918;-57
2021/01/16 06:08:50;;;;;;;;;;;5.80;99.90;;;;;;5098412;28;19994;-57
2021/01/16 06:11:16;;;;;;;;;;;5.90;99.90;;;;;;5109788;28;19908;-57
2021/01/16 06:13:43;;;;;;;;;;;5.90;99.90;;;;;;5118209;28;19910;-57
2021/01/16 06:16:16;;;;;;;;;;;5.90;99.90;;;;;;5117536;28;20225;-57
2021/01/16 06:18:44;;;;;;;;;;;6.00;99.90;;;;;;5118540;28;19968;-57
2021/01/16 06:21:10;;;;;;;;;;;6.00;99.90;;;;;;5118215;28;20214;-57
2021/01/16 06:23:38;;;;;;;;;;;6.10;99.90;;;;;;5118805;28;19903;-57
2021/01/16 06:26:07;;;;;;;;;;;6.10;99.90;;;;;;5118442;28;19953;-58
2021/01/16 06:28:39;;;;;;;;;;;6.20;99.90;;;;;;5118248;28;19903;-58
2021/01/16 06:31:20;;;;;;;;;;;6.20;99.90;;;;;;5118107;28;20294;-60
2021/01/16 06:33:53;;;;;;;;;;;6.30;99.90;;;;;;5118245;28;20256;-58
2021/01/16 06:36:22;;;;;;;;;;;6.40;99.90;;;;;;5117804;28;19903;-58
2021/01/16 06:38:54;;;;;;;;;;;6.40;99.90;;;;;;5118191;28;19911;-58
2021/01/16 06:41:25;;;;;;;;;;;6.50;99.90;;;;;;5118328;28;19904;-58
2021/01/16 06:43:52;;;;;;;;;;;6.60;99.90;;;;;;5118007;28;20329;-58
2021/01/16 06:46:18;;;;;;;;;;;6.60;99.90;;;;;;5117802;28;20246;-58
2021/01/16 06:48:44;;;;;;;;;;;6.70;99.90;;;;;;5117786;28;19916;-58
2021/01/16 06:51:11;;;;;;;;;;;6.70;99.90;;;;;;5117743;28;19959;-58
2021/01/16 06:53:37;;;;;;;;;;;6.80;99.90;;;;;;5117745;28;19961;-58
2021/01/16 06:56:04;;;;;;;;;;;6.80;99.90;;;;;;5117374;28;19904;-58
2021/01/16 06:58:36;;;;;;;;;;;6.90;99.90;;;;;;5117911;28;19977;-58
2021/01/16 07:01:01;;;;;;;;;;;6.90;99.90;;;;;;5117442;28;19956;-58
2021/01/16 07:03:27;;;;;;;;;;;7.00;99.90;;;;;;5117847;28;19915;-58
2021/01/16 07:05:56;;;;;;;;;;;7.10;99.90;;;;;;5117773;28;19915;-58
2021/01/16 07:08:22;;;;;;;;;;;7.10;99.90;;;;;;5117868;28;19904;-57
2021/01/16 07:10:47;;;;;;;;;;;7.20;99.90;;;;;;5117632;28;19922;-58
2021/01/16 07:13:13;;;;;;;;;;;7.20;99.90;;;;;;5117893;28;19907;-58
2021/01/16 07:15:44;;;;;;;;;;;7.30;99.90;;;;;;5117361;28;19961;-59
2021/01/16 07:18:10;;;;;;;;;;;7.30;99.90;;;;;;5117927;28;19903;-58
2021/01/16 07:20:38;;;;;;;;;;;7.40;99.90;;;;;;5117169;28;19915;-59
2021/01/16 07:23:04;;;;;;;;;;;7.40;99.90;;;;;;5117928;28;19904;-58
2021/01/16 07:25:30;;;;;;;;;;;7.40;99.90;;;;;;5105120;28;19904;-59
2021/01/16 07:27:56;;;;;;;;;;;7.40;99.90;;;;;;5096649;28;19915;-59
2021/01/16 07:30:25;;;;;;;;;;;7.40;99.90;;;;;;5096758;28;19912;-58
2021/01/16 07:32:50;;;;;;;;;;;7.40;99.90;;;;;;5097168;28;19947;-58
2021/01/16 07:35:16;;;;;;;;;;;7.40;99.90;;;;;;5096746;28;20306;-58
2021/01/16 07:37:42;;;;;;;;;;;7.40;99.90;;;;;;5097110;28;19908;-58
2021/01/16 07:40:14;;;;;;;;;;;7.50;99.90;;;;;;5096669;28;19912;-58
2021/01/16 07:42:46;;;;;;;;;;;7.50;99.90;;;;;;5097054;28;20294;-58
2021/01/16 07:45:12;;;;;;;;;;;7.50;99.90;;;;;;5096833;28;19911;-58
2021/01/16 07:47:39;;;;;;;;;;;7.60;99.90;;;;;;5096946;28;19908;-58
2021/01/16 07:50:09;;;;;;;;;;;7.60;99.90;;;;;;5061318;28;19913;-58
2021/01/16 07:52:36;;;;;;;;;;;7.60;99.90;;;;;;5056562;28;19917;-58
2021/01/16 07:55:08;;;;;;;;;;;7.60;99.90;;;;;;5056660;28;19912;-58
2021/01/16 07:57:33;;;;;;;;;;;7.50;99.90;;;;;;5056855;28;19915;-58
2021/01/16 08:00:02;;;;;;;;;;;7.60;99.90;;;;;;5056429;28;19904;-58
2021/01/16 08:02:28;;;;;;;;;;;7.60;99.90;;;;;;5056754;28;19909;-58
2021/01/16 08:04:59;;;;;;;;;;;7.60;99.90;;;;;;5056494;28;19905;-59
2021/01/16 08:07:37;;;;;;;;;;;7.60;99.90;;;;;;5056838;28;19913;-59
2021/01/16 08:10:03;;;;;;;;;;;7.60;99.90;;;;;;5056631;28;19995;-59
2021/01/16 08:12:28;;;;;;;;;;;7.70;99.90;;;;;;5056625;28;20016;-59
2021/01/16 08:14:54;;;;;;;;;;;7.70;99.90;;;;;;5056552;28;19999;-59
2021/01/16 08:17:26;;;;;;;;;;;7.70;99.90;;;;;;5056626;28;20265;-60
2021/01/16 08:20:06;;;;;;;;;;;7.70;99.90;;;;;;5056080;28;20276;-59
2021/01/16 08:22:42;;;;;;;;;;;7.70;99.90;;;;;;5056748;28;19931;-58
2021/01/16 08:25:12;;;;;;;;;;;7.90;99.90;;;;;;5056207;28;19992;-58
2021/01/16 08:27:38;;;;;;;;;;;7.90;99.90;;;;;;5056488;28;19976;-58
2021/01/16 08:30:07;;;;;;;;;;;7.90;99.90;;;;;;5056289;28;19905;-58
2021/01/16 08:32:32;;;;;;;;;;;7.90;99.90;;;;;;5055913;28;20372;-58
2021/01/16 08:34:59;;;;;;;;;;;7.90;99.90;;;;;;5056281;28;20007;-58
2021/01/16 08:37:38;;;;;;;;;;;7.90;99.90;;;;;;5055985;28;19995;-58
2021/01/16 08:40:07;;;;;;;;;;;8.00;99.90;;;;;;5074762;28;19909;-58
2021/01/16 08:42:34;;;;;;;;;;;8.00;99.90;;;;;;5079535;28;19904;-58
2021/01/16 08:45:01;;;;;;;;;;;8.00;99.90;;;;;;5080097;28;19947;-58
2021/01/16 08:47:26;;;;;;;;;;;8.00;99.90;;;;;;5079695;28;20180;-58
2021/01/16 08:49:52;;;;;;;;;;;7.90;99.90;;;;;;5079618;28;19918;-58
2021/01/16 08:52:31;;;;;;;;;;;7.90;99.90;;;;;;5079462;28;20241;-58
2021/01/16 08:55:04;;;;;;;;;;;8.00;99.90;;;;;;5079492;28;19915;-58
2021/01/16 08:57:30;;;;;;;;;;;8.10;99.90;;;;;;5079396;28;20002;-58
2021/01/16 08:59:56;;;;;;;;;;;8.10;99.90;;;;;;5079245;28;19956;-57
2021/01/16 09:02:21;;;;;;;;;;;8.10;99.90;;;;;;5079472;28;19963;-57
2021/01/16 09:04:47;;;;;;;;;;;8.20;99.90;;;;;;5079442;28;19962;-59
2021/01/16 09:07:22;;;;;;;;;;;8.30;99.90;;;;;;5079287;28;19949;-59
2021/01/16 09:09:58;;;;;;;;;;;8.30;99.90;;;;;;5079406;28;19916;-60
2021/01/16 09:12:36;;;;;;;;;;;8.30;99.90;;;;;;5078835;28;19909;-59
2021/01/16 09:15:22;;;;;;;;;;;8.30;99.90;;;;;;5079333;28;20223;-60
2021/01/16 09:18:07;;;;;;;;;;;8.30;99.90;;;;;;5078374;28;19957;-60
2021/01/16 09:20:33;;;;;;;;;;;8.30;99.90;;;;;;5079570;28;19909;-60
2021/01/16 09:23:17;;;;;;;;;;;8.40;99.90;;;;;;5079017;28;19911;-60
2021/01/16 09:25:43;;;;;;;;;;;8.50;99.90;;;;;;5064824;28;19916;-59
2021/01/16 09:28:08;;;;;;;;;;;8.60;99.90;;;;;;5059120;28;19908;-60
2021/01/16 09:30:34;;;;;;;;;;;8.70;99.90;;;;;;5058318;28;20318;-60
2021/01/16 09:33:18;;;;;;;;;;;8.70;99.90;;;;;;5058753;28;19958;-58
2021/01/16 09:35:43;;;;;;;;;;;8.80;99.90;;;;;;5058474;28;19967;-59
2021/01/16 09:38:15;;;;;;;;;;;8.90;99.90;;;;;;5058954;28;20292;-59
2021/01/16 09:40:40;;;;;;;;;;;9.00;99.90;;;;;;5058165;28;19911;-59
2021/01/16 09:43:19;;;;;;;;;;;9.10;99.90;;;;;;5058620;28;19904;-58
2021/01/16 09:45:52;;;;;;;;;;;9.10;99.90;;;;;;5062371;28;19958;-58
2021/01/16 09:48:42;;;;;;;;;;;9.10;99.90;;;;;;5073650;28;19966;-58
2021/01/16 09:51:09;;;;;;;;;;;9.10;99.90;;;;;;5118576;28;20351;-59
2021/01/16 09:53:35;;;;;;;;;;;9.10;99.90;;;;;;5115178;28;19950;-59
2021/01/16 09:56:00;;;;;;;;;;;9.20;99.90;;;;;;5118592;28;19908;-59
2021/01/16 09:58:32;;;;;;;;;;;9.20;99.90;;;;;;5114190;28;20302;-59
2021/01/16 10:01:16;;;;;;;;;;;9.20;99.90;;;;;;5117231;28;19998;-59
2021/01/16 10:03:42;;;;;;;;;;;9.20;99.90;;;;;;5118605;28;20213;-59
2021/01/16 10:06:08;;;;;;;;;;;9.30;99.90;;;;;;5093999;28;20006;-60
2021/01/16 10:08:34;;;;;;;;;;;9.20;99.90;;;;;;5097095;28;19995;-60
2021/01/16 10:11:00;;;;;;;;;;;9.20;99.90;;;;;;5106495;28;19915;-60
2021/01/16 10:13:30;;;;;;;;;;;9.20;99.90;;;;;;5097128;28;19904;-60
2021/01/16 10:15:57;;;;;;;;;;;9.20;99.90;;;;;;5101494;28;19912;-59
2021/01/16 10:18:25;;;;;;;;;;;9.10;99.90;;;;;;5108159;28;20052;-59
2021/01/16 10:21:03;;;;;;;;;;;9.10;99.90;;;;;;5105077;28;19947;-59
2021/01/16 10:23:30;;;;;;;;;;;9.10;99.90;;;;;;5112434;28;20222;-60
2021/01/16 10:25:59;;;;;;;;;;;9.00;99.90;;;;;;5104673;27;19908;-60
2021/01/16 10:28:25;;;;;;;;;;;9.10;99.90;;;;;;5105781;28;19963;-60
2021/01/16 10:30:57;;;;;;;;;;;9.00;99.90;;;;;;5088307;28;20321;-60
2021/01/16 10:33:22;;;;;;;;;;;9.00;99.90;;;;;;5116187;27;19908;-60
2021/01/16 10:36:03;;;;;;;;;;;9.00;99.90;;;;;;5116601;27;20287;-60
2021/01/16 10:38:41;;;;;;;;;;;9.20;99.90;;;;;;5096654;28;19916;-60
2021/01/16 10:41:07;;;;;;;;;;;9.60;99.90;;;;;;5102182;28;20245;-61
2021/01/16 10:43:33;;;;;;;;;;;9.90;99.90;;;;;;5111513;27;20014;-57
2021/01/16 10:46:13;;;;;;;;;;;10.10;99.90;;;;;;5111336;28;20383;-57
2021/01/16 10:48:39;;;;;;;;;;;10.20;99.90;;;;;;5107513;28;19908;-57
2021/01/16 10:51:05;;;;;;;;;;;10.60;99.90;;;;;;5108166;28;19930;-57
2021/01/16 10:53:41;;;;;;;;;;;10.90;99.90;;;;;;5114270;28;19919;-56
2021/01/16 10:56:13;;;;;;;;;;;11.00;99.90;;;;;;5113497;28;19913;-56
2021/01/16 10:58:40;;;;;;;;;;;11.10;99.90;;;;;;5105986;28;19915;-56
2021/01/16 11:01:07;;;;;;;;;;;11.30;99.90;;;;;;5110320;28;20214;-56
2021/01/16 11:03:33;;;;;;;;;;;11.40;99.90;;;;;;5111335;28;20367;-56
2021/01/16 11:06:06;;;;;;;;;;;11.50;99.90;;;;;;5124150;27;19907;-56
2021/01/16 11:08:32;;;;;;;;;;;11.50;99.90;;;;;;5137881;27;19908;-56
2021/01/16 11:10:59;;;;;;;;;;;11.60;99.90;;;;;;5129703;27;19961;-56
2021/01/16 11:13:28;;;;;;;;;;;11.90;99.90;;;;;;5116747;28;19908;-56
2021/01/16 11:15:55;;;;;;;;;;;11.70;99.90;;;;;;5115062;28;19903;-56
2021/01/16 11:18:31;;;;;;;;;;;11.40;99.90;;;;;;5111325;28;19957;-57
2021/01/16 11:21:00;;;;;;;;;;;11.00;99.90;;;;;;5117196;28;19904;-57
2021/01/16 11:23:30;;;;;;;;;;;10.60;99.90;;;;;;5099130;28;19904;-57
2021/01/16 11:25:56;;;;;;;;;;;10.50;99.90;;;;;;5101438;28;20003;-56
2021/01/16 11:28:28;;;;;;;;;;;10.40;99.90;;;;;;5097010;28;20321;-57
2021/01/16 11:31:03;;;;;;;;;;;10.20;99.90;;;;;;5100994;28;20272;-57
2021/01/16 11:33:28;;;;;;;;;;;10.10;99.90;;;;;;5116850;28;19904;-57
2021/01/16 11:36:15;;;;;;;;;;;10.00;99.90;;;;;;5111471;28;19934;-57
2021/01/16 11:38:44;;;;;;;;;;;10.10;99.90;;;;;;5086375;28;19915;-57
2021/01/16 11:41:10;;;;;;;;;;;10.00;99.90;;;;;;5096603;28;19908;-57
2021/01/16 11:43:36;;;;;;;;;;;9.90;99.90;;;;;;5098966;28;20196;-57
2021/01/16 11:46:11;;;;;;;;;;;9.80;99.90;;;;;;5102129;28;19907;-57
2021/01/16 11:48:38;;;;;;;;;;;10.10;99.90;;;;;;5115419;28;20254;-54
2021/01/16 11:51:19;;;;;;;;;;;10.40;99.90;;;;;;5115476;28;20275;-55
2021/01/16 11:53:48;;;;;;;;;;;10.60;99.90;;;;;;5115012;28;19907;-56
2021/01/16 11:56:15;;;;;;;;;;;10.70;99.90;;;;;;5116831;28;19939;-55
2021/01/16 11:58:43;;;;;;;;;;;11.10;99.90;;;;;;5116697;28;20203;-53
2021/01/16 12:01:08;;;;;;;;;;;11.00;99.90;;;;;;5105262;28;19908;-54
2021/01/16 12:03:34;;;;;;;;;;;10.60;99.90;;;;;;5097610;28;20006;-54
2021/01/16 12:06:08;;;;;;;;;;;10.60;99.90;;;;;;5112056;28;20353;-54
2021/01/16 12:08:35;;;;;;;;;;;10.50;99.90;;;;;;5100452;28;20243;-54
2021/01/16 12:11:02;;;;;;;;;;;10.40;99.90;;;;;;5115129;28;19911;-54
2021/01/16 12:13:27;;;;;;;;;;;10.40;99.90;;;;;;5114364;27;20230;-54
2021/01/16 12:15:53;;;;;;;;;;;10.30;99.90;;;;;;5112553;28;19914;-54
2021/01/16 12:18:19;;;;;;;;;;;10.20;99.90;;;;;;5115849;27;20003;-56
2021/01/16 12:20:45;;;;;;;;;;;10.30;99.90;;;;;;5100500;28;20290;-54
2021/01/16 12:23:14;;;;;;;;;;;10.30;99.90;;;;;;5109103;28;20233;-54
2021/01/16 12:25:44;;;;;;;;;;;10.20;99.90;;;;;;5107302;28;19908;-52
2021/01/16 12:28:16;;;;;;;;;;;10.20;99.90;;;;;;5099882;28;19957;-53
2021/01/16 12:30:43;;;;;;;;;;;10.20;99.90;;;;;;5098211;28;20348;-53
2021/01/16 12:33:08;;;;;;;;;;;10.20;99.90;;;;;;5099676;28;19908;-54
2021/01/16 12:35:34;;;;;;;;;;;10.20;99.90;;;;;;5103709;28;20325;-54
2021/01/16 12:38:00;;;;;;;;;;;10.10;99.90;;;;;;5120019;28;19969;-54
2021/01/16 12:40:26;;;;;;;;;;;10.00;99.90;;;;;;5119939;28;19947;-55
2021/01/16 12:42:52;;;;;;;;;;;9.80;99.90;;;;;;5102219;28;19931;-54
2021/01/16 12:45:19;;;;;;;;;;;9.80;99.90;;;;;;5101984;28;20306;-57
2021/01/16 12:47:47;;;;;;;;;;;9.90;99.90;;;;;;5100672;28;19911;-58
2021/01/16 12:50:12;;;;;;;;;;;9.90;99.90;;;;;;5099263;28;19919;-59
2021/01/16 12:52:43;;;;;;;;;;;10.00;99.90;;;;;;5099146;28;19911;-58
2021/01/16 12:55:10;;;;;;;;;;;10.20;99.90;;;;;;5099668;28;19905;-58
2021/01/16 12:57:39;;;;;;;;;;;10.20;99.90;;;;;;5081327;28;20188;-58
2021/01/16 13:00:06;;;;;;;;;;;10.30;99.90;;;;;;5099260;28;20192;-58
2021/01/16 13:02:32;;;;;;;;;;;10.40;99.90;;;;;;5099362;28;20056;-58
2021/01/16 13:05:00;;;;;;;;;;;10.50;99.90;;;;;;5098339;28;20358;-58
2021/01/16 13:07:27;;;;;;;;;;;10.50;99.90;;;;;;5098527;28;19920;-58
2021/01/16 13:09:53;;;;;;;;;;;10.60;99.90;;;;;;5098349;28;19910;-59
2021/01/16 13:12:19;;;;;;;;;;;10.60;99.90;;;;;;5098665;28;19996;-59
2021/01/16 13:14:52;;;;;;;;;;;10.60;99.90;;;;;;5098286;28;19918;-60
2021/01/16 13:17:18;;;;;;;;;;;10.40;99.90;;;;;;5079987;28;19915;-57
2021/01/16 13:19:48;;;;;;;;;;;10.50;99.90;;;;;;5098042;28;19911;-59
2021/01/16 13:22:17;;;;;;;;;;;10.40;99.90;;;;;;5097884;28;19911;-58
2021/01/16 13:24:43;;;;;;;;;;;10.40;99.90;;;;;;5101094;28;19912;-58
2021/01/16 13:27:20;;;;;;;;;;;10.30;99.90;;;;;;5106885;28;19907;-59
2021/01/16 13:29:49;;;;;;;;;;;10.40;99.90;;;;;;5108530;28;19979;-58
2021/01/16 13:32:17;;;;;;;;;;;10.40;99.90;;;;;;5097614;28;19908;-60
2021/01/16 13:34:43;;;;;;;;;;;10.40;99.90;;;;;;5084063;28;20285;-59
2021/01/16 13:37:14;;;;;;;;;;;10.30;99.90;;;;;;5098255;28;19947;-59
2021/01/16 13:39:39;;;;;;;;;;;10.30;99.90;;;;;;5098004;28;19904;-60
2021/01/16 13:42:05;;;;;;;;;;;10.20;99.90;;;;;;5099882;28;19919;-59
2021/01/16 13:44:31;;;;;;;;;;;10.20;99.90;;;;;;5098731;28;19908;-60
2021/01/16 13:46:56;;;;;;;;;;;10.20;99.90;;;;;;5098511;28;19987;-60
2021/01/16 13:49:26;;;;;;;;;;;10.30;99.90;;;;;;5105093;28;20175;-59
2021/01/16 13:52:01;;;;;;;;;;;10.40;99.90;;;;;;5106121;28;20218;-59
2021/01/16 13:54:31;;;;;;;;;;;10.20;99.90;;;;;;5121327;27;20215;-59
2021/01/16 13:56:56;;;;;;;;;;;10.10;99.90;;;;;;5116678;28;19903;-59
2021/01/16 13:59:26;;;;;;;;;;;10.20;99.90;;;;;;5117910;28;20159;-59
2021/01/16 14:01:55;;;;;;;;;;;10.20;99.90;;;;;;5118144;28;19910;-58
2021/01/16 14:04:20;;;;;;;;;;;10.20;99.90;;;;;;5118408;28;19904;-58
2021/01/16 14:06:50;;;;;;;;;;;10.20;99.90;;;;;;5118240;28;19960;-58
2021/01/16 14:09:19;;;;;;;;;;;10.10;99.90;;;;;;5117938;28;19939;-58
2021/01/16 14:11:45;;;;;;;;;;;10.10;99.90;;;;;;5118320;28;19930;-58
2021/01/16 14:14:24;;;;;;;;;;;10.10;99.90;;;;;;5116907;28;19998;-58
2021/01/16 14:16:50;;;;;;;;;;;10.00;99.90;;;;;;5118126;28;19921;-57
2021/01/16 14:19:16;;;;;;;;;;;10.00;99.90;;;;;;5118416;28;19943;-57
2021/01/16 14:21:50;;;;;;;;;;;10.00;99.90;;;;;;5100120;28;19915;-57
2021/01/16 14:24:16;;;;;;;;;;;10.10;99.90;;;;;;5118016;28;20345;-57
2021/01/16 14:26:53;;;;;;;;;;;9.90;99.90;;;;;;5117885;28;19953;-57
2021/01/16 14:29:19;;;;;;;;;;;9.90;99.90;;;;;;5117922;28;20002;-57
2021/01/16 14:31:44;;;;;;;;;;;9.90;99.90;;;;;;5117944;28;20010;-56